createdAt,value
2019-03-20T00:01:43.644Z,79.86
2019-03-20T00:04:12.742Z,79.92
2019-03-20T00:06:44.275Z,79.62
2019-03-20T00:09:15.758Z,79.81
2019-03-20T00:11:47.283Z,78.82
2019-03-20T00:14:18.804Z,78.71
2019-03-20T00:16:51.000Z,79.71
2019-03-20T00:19:22.721Z,79.71
2019-03-20T00:21:54.202Z,79.88
2019-03-20T00:24:25.563Z,80.65
2019-03-20T00:26:57.344Z,80.83
2019-03-20T00:29:28.898Z,80.92
2019-03-20T00:32:00.640Z,80.79
2019-03-20T00:34:33.288Z,81.21
2019-03-20T00:37:04.774Z,80.73
2019-03-20T00:39:36.331Z,80.99
2019-03-20T00:42:08.110Z,80.78
2019-03-20T00:44:39.813Z,80.51
2019-03-20T00:47:11.468Z,80.08
2019-03-20T00:49:43.034Z,79.70
2019-03-20T00:52:14.791Z,79.74
2019-03-20T00:54:46.495Z,79.62
2019-03-20T00:57:18.266Z,79.60
2019-03-20T00:59:49.941Z,79.75
2019-03-20T01:02:21.754Z,79.65
2019-03-20T01:04:53.583Z,78.80
2019-03-20T01:07:25.398Z,78.06
2019-03-20T01:09:56.925Z,78.23
2019-03-20T01:12:28.590Z,78.89
2019-03-20T01:15:00.039Z,78.75
2019-03-20T01:17:31.323Z,78.17
2019-03-20T01:20:02.967Z,78.08
2019-03-20T01:22:34.353Z,78.21
2019-03-20T01:25:06.669Z,78.39
2019-03-20T01:27:38.208Z,78.45
2019-03-20T01:30:12.572Z,78.53
2019-03-20T01:32:44.080Z,78.63
2019-03-20T01:35:23.575Z,81.20
2019-03-20T01:37:49.171Z,82.65
2019-03-20T01:40:20.769Z,83.05
2019-03-20T01:42:52.337Z,83.08
2019-03-20T01:45:24.010Z,82.61
2019-03-20T01:47:55.646Z,82.17
2019-03-20T01:50:27.321Z,82.47
2019-03-20T01:52:58.778Z,82.25
2019-03-20T01:55:30.559Z,81.79
2019-03-20T01:58:02.444Z,81.11
2019-03-20T02:00:34.462Z,81.02
2019-03-20T02:03:06.077Z,80.92
2019-03-20T02:05:38.690Z,81.32
2019-03-20T02:08:10.139Z,81.67
2019-03-20T02:10:41.793Z,81.47
2019-03-20T02:13:13.402Z,81.82
2019-03-20T02:15:44.887Z,81.54
2019-03-20T02:18:16.602Z,81.79
2019-03-20T02:20:49.744Z,81.90
2019-03-20T02:23:21.265Z,81.82
2019-03-20T02:25:52.904Z,81.76
2019-03-20T02:28:24.579Z,81.96
2019-03-20T02:30:56.203Z,81.77
2019-03-20T02:33:28.452Z,82.05
2019-03-20T02:36:00.437Z,82.15
2019-03-20T02:38:32.111Z,82.75
2019-03-20T02:41:03.816Z,82.99
2019-03-20T02:43:35.584Z,83.08
2019-03-20T02:46:07.344Z,82.95
2019-03-20T02:48:39.333Z,83.15
2019-03-20T02:51:10.832Z,82.82
2019-03-20T02:53:42.737Z,83.34
2019-03-20T02:56:14.436Z,83.15
2019-03-20T02:58:46.265Z,82.77
2019-03-20T03:01:18.096Z,82.43
2019-03-20T03:03:50.131Z,82.14
2019-03-20T03:06:21.979Z,82.43
2019-03-20T03:08:55.643Z,82.76
2019-03-20T03:11:26.988Z,82.31
2019-03-20T03:13:58.619Z,82.47
2019-03-20T03:16:30.256Z,82.51
2019-03-20T03:19:02.104Z,82.45
2019-03-20T03:21:33.813Z,82.58
2019-03-20T03:24:05.425Z,82.64
2019-03-20T03:26:39.029Z,82.47
2019-03-20T03:29:09.465Z,82.21
2019-03-20T03:31:39.792Z,82.13
2019-03-20T03:34:09.960Z,82.01
2019-03-20T03:36:40.303Z,82.23
2019-03-20T03:39:10.932Z,82.11
2019-03-20T03:41:41.094Z,82.09
2019-03-20T03:44:11.356Z,81.90
2019-03-20T03:46:41.602Z,81.82
2019-03-20T03:49:13.321Z,81.90
2019-03-20T03:51:43.547Z,81.54
2019-03-20T03:54:13.868Z,81.14
2019-03-20T03:56:44.043Z,80.91
2019-03-20T03:59:14.211Z,81.48
2019-03-20T04:01:44.338Z,81.85
2019-03-20T04:04:14.521Z,82.07
2019-03-20T04:06:44.680Z,81.77
2019-03-20T04:09:14.798Z,81.57
2019-03-20T04:11:45.197Z,81.04
2019-03-20T04:14:15.708Z,80.76
2019-03-20T04:16:46.152Z,81.62
2019-03-20T04:19:16.509Z,81.21
2019-03-20T04:21:46.677Z,80.54
2019-03-20T04:24:16.950Z,79.99
2019-03-20T04:26:47.466Z,79.94
2019-03-20T04:29:17.709Z,79.58
2019-03-20T04:31:47.842Z,79.62
2019-03-20T04:34:18.021Z,79.50
2019-03-20T04:36:48.391Z,79.40
2019-03-20T04:39:18.663Z,79.53
2019-03-20T04:41:48.970Z,79.50
2019-03-20T04:44:19.142Z,79.35
2019-03-20T04:46:50.552Z,79.53
2019-03-20T04:49:20.751Z,79.65
2019-03-20T04:51:51.062Z,79.43
2019-03-20T04:54:21.128Z,79.11
2019-03-20T04:56:51.434Z,78.96
2019-03-20T04:59:21.620Z,78.69
2019-03-20T05:01:51.867Z,78.84
2019-03-20T05:04:22.415Z,78.69
2019-03-20T05:06:58.823Z,79.32
2019-03-20T05:09:25.098Z,78.98
2019-03-20T05:11:55.577Z,78.73
2019-03-20T05:14:25.988Z,78.83
2019-03-20T05:16:56.254Z,78.73
2019-03-20T05:19:26.615Z,78.87
2019-03-20T05:21:57.045Z,78.81
2019-03-20T05:24:27.343Z,79.71
2019-03-20T05:26:58.385Z,80.36
2019-03-20T05:29:28.827Z,80.97
2019-03-20T05:31:59.361Z,80.37
2019-03-20T05:34:29.574Z,80.62
2019-03-20T05:37:09.885Z,81.01
2019-03-20T05:39:31.891Z,81.11
2019-03-20T05:42:02.292Z,81.43
2019-03-20T05:44:32.634Z,81.13
2019-03-20T05:47:02.859Z,81.05
2019-03-20T05:49:33.100Z,81.25
2019-03-20T05:52:03.230Z,81.07
2019-03-20T05:54:33.301Z,80.90
2019-03-20T05:57:04.530Z,81.08
2019-03-20T05:59:34.873Z,80.91
2019-03-20T06:02:05.050Z,80.77
2019-03-20T06:04:35.405Z,80.19
2019-03-20T06:07:05.591Z,79.90
2019-03-20T06:09:35.762Z,79.40
2019-03-20T06:12:06.079Z,79.10
2019-03-20T06:14:36.520Z,78.47
2019-03-20T06:17:07.469Z,78.48
2019-03-20T06:19:37.636Z,77.89
2019-03-20T06:22:08.040Z,77.55
2019-03-20T06:24:38.237Z,76.78
2019-03-20T06:27:08.677Z,76.96
2019-03-20T06:29:38.954Z,73.83
2019-03-20T06:32:09.514Z,67.91
2019-03-20T06:34:39.779Z,66.56
2019-03-20T06:37:09.975Z,64.20
2019-03-20T06:39:40.506Z,61.10
2019-03-20T06:42:10.896Z,59.02
2019-03-20T06:44:41.219Z,61.82
2019-03-20T06:47:11.492Z,58.80
2019-03-20T06:49:41.775Z,55.52
2019-03-20T06:52:11.964Z,53.45
2019-03-20T06:54:42.138Z,51.26
2019-03-20T06:57:12.319Z,51.27
2019-03-20T07:00:10.895Z,55.82
2019-03-20T07:02:42.839Z,52.22
2019-03-20T07:05:21.450Z,48.64
2019-03-20T07:07:51.512Z,51.28
2019-03-20T07:10:40.656Z,50.43
2019-03-20T07:13:11.156Z,53.42
2019-03-20T07:15:41.424Z,53.49
2019-03-20T07:18:11.660Z,50.00
2019-03-20T07:20:42.110Z,46.95
2019-03-20T07:23:12.388Z,50.34
2019-03-20T07:25:42.631Z,53.83
2019-03-20T07:28:12.899Z,55.86
2019-03-20T07:30:43.802Z,57.32
2019-03-20T07:33:14.064Z,58.01
2019-03-20T07:35:44.425Z,58.65
2019-03-20T07:38:14.620Z,56.27
2019-03-20T07:40:45.211Z,58.24
2019-03-20T07:43:15.373Z,55.97
2019-03-20T07:45:45.629Z,55.88
2019-03-20T07:48:22.191Z,54.39
2019-03-20T07:50:47.856Z,55.30
2019-03-20T07:53:18.127Z,54.49
2019-03-20T07:55:48.274Z,53.87
2019-03-20T07:58:18.636Z,47.31
2019-03-20T08:00:48.961Z,43.59
2019-03-20T08:03:19.269Z,41.09
2019-03-20T08:05:49.450Z,39.88
2019-03-20T08:08:20.956Z,39.95
2019-03-20T08:10:51.121Z,39.96
2019-03-20T08:13:21.419Z,38.99
2019-03-20T08:15:51.583Z,39.20
2019-03-20T08:18:21.878Z,37.14
2019-03-20T08:20:52.203Z,38.09
2019-03-20T08:23:22.335Z,36.89
2019-03-20T08:25:52.885Z,37.34
2019-03-20T08:28:23.081Z,33.78
2019-03-20T08:30:53.329Z,35.95
2019-03-20T08:33:23.933Z,33.24
2019-03-20T08:35:54.097Z,31.48
2019-03-20T08:38:24.266Z,32.14
2019-03-20T08:40:54.531Z,33.71
2019-03-20T08:43:24.906Z,35.06
2019-03-20T08:45:55.156Z,33.31
2019-03-20T08:48:25.438Z,32.97
2019-03-20T08:50:55.896Z,31.01
2019-03-20T08:53:26.414Z,33.67
2019-03-20T08:55:56.876Z,31.12
2019-03-20T08:58:30.147Z,31.53
2019-03-20T09:01:00.542Z,30.98
2019-03-20T09:03:30.992Z,28.97
2019-03-20T09:06:01.393Z,28.78
2019-03-20T09:08:31.877Z,30.23
2019-03-20T09:11:02.022Z,30.30
2019-03-20T09:13:32.527Z,31.93
2019-03-20T09:16:02.926Z,32.68
2019-03-20T09:18:33.024Z,32.26
2019-03-20T09:21:03.208Z,32.24
2019-03-20T09:23:33.416Z,30.34
2019-03-20T09:26:03.933Z,32.03
2019-03-20T09:28:34.425Z,31.09
2019-03-20T09:31:04.557Z,33.12
2019-03-20T09:33:34.713Z,31.16
2019-03-20T09:36:05.244Z,31.37
2019-03-20T09:38:43.505Z,31.37
2019-03-20T09:41:07.809Z,31.61
2019-03-20T09:43:38.165Z,31.15
2019-03-20T09:46:08.527Z,30.16
2019-03-20T09:48:38.751Z,31.61
2019-03-20T09:51:09.318Z,35.16
2019-03-20T09:53:39.974Z,32.93
2019-03-20T09:56:11.130Z,31.89
2019-03-20T09:58:41.605Z,34.54
2019-03-20T10:01:11.911Z,34.84
2019-03-20T10:03:42.380Z,34.46
2019-03-20T10:06:12.694Z,34.01
2019-03-20T10:08:42.969Z,32.21
2019-03-20T10:11:13.504Z,32.30
2019-03-20T10:13:44.014Z,33.73
2019-03-20T10:16:14.236Z,30.83
2019-03-20T10:18:44.588Z,34.66
2019-03-20T10:21:14.734Z,33.33
2019-03-20T10:23:45.107Z,32.09
2019-03-20T10:26:15.558Z,33.40
2019-03-20T10:28:46.027Z,32.00
2019-03-20T10:31:16.390Z,33.26
2019-03-20T10:33:46.778Z,31.92
2019-03-20T10:36:17.104Z,31.39
2019-03-20T10:38:48.742Z,32.46
2019-03-20T10:41:19.198Z,31.10
2019-03-20T10:43:52.172Z,32.38
2019-03-20T10:46:21.719Z,32.68
2019-03-20T10:48:52.097Z,30.67
2019-03-20T10:51:22.472Z,32.04
2019-03-20T10:53:52.899Z,30.93
2019-03-20T10:56:23.500Z,31.63
2019-03-20T10:58:53.628Z,30.36
2019-03-20T11:01:24.438Z,30.44
2019-03-20T11:03:54.737Z,31.07
2019-03-20T11:06:25.433Z,30.65
2019-03-20T11:08:55.913Z,30.71
2019-03-20T11:11:27.525Z,30.33
2019-03-20T11:13:57.775Z,30.84
2019-03-20T11:16:28.326Z,29.22
2019-03-20T11:18:58.663Z,29.59
2019-03-20T11:21:28.932Z,31.32
2019-03-20T11:23:59.330Z,30.04
2019-03-20T11:26:29.856Z,31.07
2019-03-20T11:28:59.969Z,32.94
2019-03-20T11:31:30.601Z,30.02
2019-03-20T11:34:00.773Z,30.13
2019-03-20T11:36:30.902Z,30.38
2019-03-20T11:39:01.105Z,29.61
2019-03-20T11:41:32.817Z,29.78
2019-03-20T11:44:03.149Z,28.80
2019-03-20T11:46:33.762Z,28.39
2019-03-20T11:49:04.358Z,28.69
2019-03-20T11:51:34.477Z,28.38
2019-03-20T11:54:04.786Z,30.21
2019-03-20T11:56:34.895Z,29.62
2019-03-20T11:59:05.318Z,27.15
2019-03-20T12:01:35.789Z,27.55
2019-03-20T12:04:06.201Z,27.48
2019-03-20T12:06:36.317Z,26.01
2019-03-20T12:09:08.484Z,26.78
2019-03-20T12:11:45.770Z,27.02
2019-03-20T12:14:10.565Z,26.22
2019-03-20T12:16:41.033Z,26.07
2019-03-20T12:19:11.594Z,26.09
2019-03-20T12:21:42.162Z,26.88
2019-03-20T12:24:12.534Z,25.91
2019-03-20T12:26:42.970Z,26.65
2019-03-20T12:29:13.394Z,26.26
2019-03-20T12:31:43.655Z,26.71
2019-03-20T12:34:14.510Z,25.26
2019-03-20T12:36:44.888Z,26.77
2019-03-20T12:39:15.085Z,26.34
2019-03-20T12:41:45.340Z,27.34
2019-03-20T12:44:15.553Z,28.30
2019-03-20T12:46:45.764Z,27.38
2019-03-20T12:49:16.129Z,27.78
2019-03-20T12:51:46.393Z,24.89
2019-03-20T12:54:16.856Z,25.51
2019-03-20T12:56:47.221Z,26.00
2019-03-20T12:59:17.520Z,25.15
2019-03-20T13:01:47.723Z,25.96
2019-03-20T13:04:17.910Z,26.54
2019-03-20T13:06:48.286Z,26.94
2019-03-20T13:09:18.839Z,26.55
2019-03-20T13:11:49.386Z,25.00
2019-03-20T13:14:19.759Z,26.81
2019-03-20T13:16:50.099Z,27.04
2019-03-20T13:19:20.586Z,28.34
2019-03-20T13:21:50.727Z,29.54
2019-03-20T13:24:21.062Z,29.20
2019-03-20T13:26:51.415Z,27.02
2019-03-20T13:29:21.721Z,25.11
2019-03-20T13:31:52.170Z,25.11
2019-03-20T13:34:22.404Z,23.59
2019-03-20T13:36:53.158Z,24.24
2019-03-20T13:39:23.407Z,23.88
2019-03-20T13:41:53.547Z,23.46
2019-03-20T13:44:23.764Z,23.33
2019-03-20T13:46:54.195Z,23.51
2019-03-20T13:49:24.825Z,23.41
2019-03-20T13:51:55.467Z,24.60
2019-03-20T13:54:26.199Z,24.42
2019-03-20T13:56:56.325Z,24.70
2019-03-20T13:59:26.756Z,26.88
2019-03-20T14:01:57.528Z,26.69
2019-03-20T14:04:28.592Z,27.72
2019-03-20T14:06:58.795Z,26.32
2019-03-20T14:09:28.968Z,27.35
2019-03-20T14:11:59.404Z,28.51
2019-03-20T14:14:30.008Z,28.07
2019-03-20T14:17:00.200Z,28.13
2019-03-20T14:19:30.461Z,28.77
2019-03-20T14:22:01.730Z,29.48
2019-03-20T14:24:31.992Z,29.55
2019-03-20T14:27:02.257Z,29.39
2019-03-20T14:29:32.512Z,30.03
2019-03-20T14:32:02.937Z,30.50
2019-03-20T14:34:33.272Z,30.74
2019-03-20T14:37:03.475Z,30.74
2019-03-20T14:39:33.848Z,31.55
2019-03-20T14:42:04.320Z,33.08
2019-03-20T14:44:35.425Z,32.15
2019-03-20T14:47:06.094Z,33.05
2019-03-20T14:49:36.463Z,33.11
2019-03-20T14:52:06.771Z,32.95
2019-03-20T14:54:37.123Z,33.12
2019-03-20T14:57:07.699Z,34.54
2019-03-20T14:59:39.367Z,33.62
2019-03-20T15:02:09.585Z,33.73
2019-03-20T15:04:40.001Z,34.29
2019-03-20T15:07:10.450Z,34.57
2019-03-20T15:09:40.854Z,34.62
2019-03-20T15:12:11.063Z,34.51
2019-03-20T15:14:41.838Z,34.35
2019-03-20T15:17:12.138Z,34.53
2019-03-20T15:19:42.402Z,34.45
2019-03-20T15:22:12.879Z,34.98
2019-03-20T15:24:43.772Z,35.83
2019-03-20T15:27:13.926Z,35.89
2019-03-20T15:29:44.245Z,36.92
2019-03-20T15:32:14.443Z,36.18
2019-03-20T15:34:45.570Z,37.33
2019-03-20T15:37:16.693Z,37.09
2019-03-20T15:39:47.002Z,38.02
2019-03-20T15:42:17.339Z,38.38
2019-03-20T15:44:49.716Z,38.00
2019-03-20T15:47:20.106Z,38.67
2019-03-20T15:49:50.447Z,38.78
2019-03-20T15:52:20.774Z,39.29
2019-03-20T15:54:52.161Z,39.12
2019-03-20T15:57:24.861Z,39.83
2019-03-20T15:59:55.216Z,39.75
2019-03-20T16:02:25.511Z,39.60
2019-03-20T16:04:55.690Z,39.57
2019-03-20T16:07:25.937Z,40.32
2019-03-20T16:09:57.586Z,39.56
2019-03-20T16:12:28.070Z,38.83
2019-03-20T16:14:58.432Z,40.12
2019-03-20T16:17:28.753Z,39.37
2019-03-20T16:19:59.253Z,39.51
2019-03-20T16:22:31.772Z,39.27
2019-03-20T16:25:02.073Z,37.62
2019-03-20T16:27:32.581Z,38.10
2019-03-20T16:30:03.005Z,37.56
2019-03-20T16:32:33.673Z,36.41
2019-03-20T16:35:04.035Z,36.95
2019-03-20T16:37:34.693Z,36.46
2019-03-20T16:40:05.359Z,36.03
2019-03-20T16:42:36.115Z,36.40
2019-03-20T16:45:06.757Z,36.30
2019-03-20T16:47:37.107Z,36.56
2019-03-20T16:50:07.851Z,36.40
2019-03-20T16:52:38.204Z,36.10
2019-03-20T16:55:09.042Z,37.15
2019-03-20T16:57:39.265Z,37.19
2019-03-20T17:00:11.814Z,37.25
2019-03-20T17:02:42.355Z,38.05
2019-03-20T17:05:12.526Z,37.73
2019-03-20T17:07:43.179Z,37.63
2019-03-20T17:10:24.276Z,38.31
2019-03-20T17:12:54.718Z,38.55
2019-03-20T17:15:26.097Z,37.93
2019-03-20T17:17:56.452Z,38.10
2019-03-20T17:20:26.858Z,38.54
2019-03-20T17:22:57.348Z,38.40
2019-03-20T17:25:28.861Z,38.67
2019-03-20T17:27:59.293Z,38.19
2019-03-20T17:30:33.579Z,38.02
2019-03-20T17:33:04.204Z,38.22
2019-03-20T17:35:34.523Z,38.04
2019-03-20T17:38:04.939Z,38.43
2019-03-20T17:40:35.528Z,39.25
2019-03-20T17:43:05.843Z,40.21
2019-03-20T17:45:36.536Z,41.06
2019-03-20T17:48:07.019Z,41.35
2019-03-20T17:50:38.672Z,42.09
2019-03-20T17:53:09.171Z,42.56
2019-03-20T17:55:39.940Z,42.96
2019-03-20T17:58:10.234Z,43.87
2019-03-20T18:00:42.505Z,43.57
2019-03-20T18:03:12.925Z,44.05
2019-03-20T18:05:43.531Z,44.12
2019-03-20T18:08:14.118Z,44.26
2019-03-20T18:10:44.343Z,44.58
2019-03-20T18:13:14.733Z,44.48
2019-03-20T18:15:46.833Z,44.89
2019-03-20T18:18:17.140Z,44.98
2019-03-20T18:20:47.588Z,46.02
2019-03-20T18:23:17.825Z,46.08
2019-03-20T18:25:48.289Z,46.23
2019-03-20T18:28:18.792Z,46.63
2019-03-20T18:30:49.020Z,46.16
2019-03-20T18:33:19.275Z,46.53
2019-03-20T18:35:49.596Z,46.93
2019-03-20T18:38:20.086Z,47.08
2019-03-20T18:40:50.697Z,46.96
2019-03-20T18:43:21.056Z,47.50
2019-03-20T18:45:52.384Z,47.82
2019-03-20T18:48:23.066Z,47.27
2019-03-20T18:50:53.389Z,47.10
2019-03-20T18:53:23.759Z,47.19
2019-03-20T18:55:53.937Z,47.66
2019-03-20T18:58:24.537Z,47.08
2019-03-20T19:00:56.418Z,47.19
2019-03-20T19:03:26.627Z,46.98
2019-03-20T19:05:58.720Z,46.87
2019-03-20T19:08:28.825Z,47.59
2019-03-20T19:10:59.020Z,46.97
2019-03-20T19:13:29.720Z,47.54
2019-03-20T19:16:02.150Z,47.85
2019-03-20T19:18:32.537Z,47.68
2019-03-20T19:21:03.074Z,47.58
2019-03-20T19:23:33.625Z,48.19
2019-03-20T19:26:03.980Z,47.59
2019-03-20T19:28:34.076Z,47.62
2019-03-20T19:31:04.219Z,47.99
2019-03-20T19:33:34.472Z,48.05
2019-03-20T19:36:05.146Z,47.79
2019-03-20T19:38:35.476Z,48.33
2019-03-20T19:41:05.833Z,48.29
2019-03-20T19:43:35.923Z,48.53
2019-03-20T19:46:06.220Z,48.92
2019-03-20T19:48:36.725Z,48.49
2019-03-20T19:51:07.029Z,48.87
2019-03-20T19:53:37.484Z,48.98
2019-03-20T19:56:07.611Z,48.97
2019-03-20T19:58:37.895Z,49.17
2019-03-20T20:01:08.124Z,49.17
2019-03-20T20:03:39.399Z,49.39
2019-03-20T20:06:11.389Z,49.18
2019-03-20T20:08:41.697Z,49.81
2019-03-20T20:11:12.209Z,49.66
2019-03-20T20:13:42.591Z,49.71
2019-03-20T20:16:12.655Z,49.95
2019-03-20T20:18:43.371Z,50.18
2019-03-20T20:23:16.562Z,50.18
2019-03-20T20:25:48.274Z,50.40
2019-03-20T20:28:19.900Z,50.55
2019-03-20T20:30:51.796Z,50.31
2019-03-20T20:34:02.434Z,50.63
2019-03-20T20:36:34.742Z,51.30
2019-03-20T20:39:07.693Z,50.77
2019-03-20T20:41:39.824Z,50.51
2019-03-20T20:44:11.400Z,51.13
2019-03-20T20:46:43.068Z,50.86
2019-03-20T20:49:14.842Z,51.58
2019-03-20T20:51:46.504Z,51.37
2019-03-20T20:54:18.017Z,52.08
2019-03-20T20:56:49.603Z,51.75
2019-03-20T20:59:20.909Z,52.06
2019-03-20T21:01:52.360Z,52.03
2019-03-20T21:04:24.471Z,52.36
2019-03-20T21:06:55.945Z,52.19
2019-03-20T21:09:29.532Z,52.27
2019-03-20T21:12:01.790Z,52.65
2019-03-20T21:14:33.729Z,53.44
2019-03-20T21:17:09.077Z,53.06
2019-03-20T21:19:41.279Z,53.30
2019-03-20T21:23:01.310Z,53.39
2019-03-20T21:25:33.455Z,53.59
2019-03-20T21:28:41.528Z,53.69
2019-03-20T21:31:52.201Z,53.96
2019-03-20T21:34:59.751Z,53.93
2019-03-20T21:38:05.026Z,54.04
2019-03-20T21:40:45.812Z,54.25
2019-03-20T21:43:47.667Z,54.29
2019-03-20T21:46:47.214Z,54.57
2019-03-20T21:49:20.274Z,54.82
2019-03-20T21:51:54.002Z,54.77
2019-03-20T21:55:15.471Z,54.87
2019-03-20T21:58:00.905Z,55.15
2019-03-20T22:01:08.262Z,55.23
2019-03-20T22:03:40.442Z,55.14
2019-03-20T22:06:38.008Z,55.58
2019-03-20T22:09:50.475Z,55.29
2019-03-20T22:12:51.116Z,55.63
2019-03-20T22:15:37.580Z,55.71
2019-03-20T22:18:51.777Z,55.72
2019-03-20T22:21:41.688Z,55.97
2019-03-20T22:25:01.780Z,55.95
2019-03-20T22:27:57.831Z,56.03
2019-03-20T22:30:29.778Z,56.15
2019-03-20T22:33:37.804Z,56.13
2019-03-20T22:36:35.010Z,56.81
2019-03-20T22:39:44.387Z,56.51
2019-03-20T22:42:40.169Z,56.74
2019-03-20T22:45:52.536Z,56.88
2019-03-20T22:49:07.313Z,56.92
2019-03-20T22:52:00.116Z,57.16
2019-03-20T22:55:15.130Z,57.32
2019-03-20T22:58:27.549Z,57.77
2019-03-20T23:01:00.908Z,57.78
2019-03-20T23:03:44.166Z,57.86
2019-03-20T23:06:16.852Z,58.25
2019-03-20T23:08:48.667Z,58.31
2019-03-20T23:11:20.720Z,58.60
2019-03-20T23:13:53.343Z,59.04
2019-03-20T23:16:25.464Z,59.52
2019-03-20T23:18:57.554Z,59.33
2019-03-20T23:21:29.507Z,59.67
2019-03-20T23:24:01.578Z,60.15
2019-03-20T23:26:33.637Z,60.98
2019-03-20T23:29:05.896Z,61.23
2019-03-20T23:31:38.131Z,61.95
2019-03-20T23:34:10.237Z,62.25
2019-03-20T23:36:42.686Z,62.52
2019-03-20T23:39:14.931Z,62.69
2019-03-20T23:41:46.966Z,62.93
2019-03-20T23:44:19.367Z,63.21
2019-03-20T23:46:52.287Z,63.37
2019-03-20T23:49:24.753Z,63.61
2019-03-20T23:51:58.003Z,63.79
2019-03-20T23:54:34.166Z,64.42
2019-03-20T23:57:06.408Z,66.12
2019-03-20T23:59:38.627Z,67.06
